createdAt,value
2019-03-11T00:00:16.010Z,12.20
2019-03-11T00:02:44.724Z,12.21
2019-03-11T00:05:13.434Z,12.20
2019-03-11T00:07:42.210Z,12.13
2019-03-11T00:10:11.208Z,12.11
2019-03-11T00:12:39.934Z,12.18
2019-03-11T00:15:09.454Z,12.04
2019-03-11T00:17:38.167Z,12.00
2019-03-11T00:20:08.646Z,12.19
2019-03-11T00:22:37.355Z,12.29
2019-03-11T00:25:06.685Z,12.10
2019-03-11T00:27:35.387Z,12.23
2019-03-11T00:30:09.354Z,12.08
2019-03-11T00:32:38.101Z,12.15
2019-03-11T00:35:07.212Z,12.05
2019-03-11T00:37:35.926Z,12.30
2019-03-11T00:40:07.330Z,12.51
2019-03-11T00:42:36.042Z,12.59
2019-03-11T00:45:07.187Z,12.63
2019-03-11T00:47:35.904Z,12.64
2019-03-11T00:50:07.174Z,12.57
2019-03-11T00:52:35.961Z,12.34
2019-03-11T00:55:06.313Z,12.14
2019-03-11T00:57:35.074Z,12.24
2019-03-11T01:00:04.887Z,12.67
2019-03-11T01:02:33.599Z,13.12
2019-03-11T01:05:02.311Z,13.60
2019-03-11T01:07:31.051Z,13.80
2019-03-11T01:09:59.822Z,13.29
2019-03-11T01:12:28.548Z,12.78
2019-03-11T01:14:57.268Z,12.27
2019-03-11T01:17:26.002Z,11.78
2019-03-11T01:19:54.724Z,11.58
2019-03-11T01:22:23.526Z,11.44
2019-03-11T01:24:52.253Z,11.40
2019-03-11T01:27:20.976Z,11.38
2019-03-11T01:29:49.700Z,11.31
2019-03-11T01:32:18.411Z,11.36
2019-03-11T01:34:47.158Z,11.30
2019-03-11T01:37:15.875Z,11.34
2019-03-11T01:39:44.591Z,11.41
2019-03-11T01:42:13.320Z,11.54
2019-03-11T01:44:42.031Z,11.56
2019-03-11T01:47:10.790Z,11.48
2019-03-11T01:49:39.512Z,11.59
2019-03-11T01:52:08.216Z,11.71
2019-03-11T01:54:36.931Z,11.86
2019-03-11T01:57:05.647Z,11.92
2019-03-11T01:59:34.410Z,12.04
2019-03-11T02:02:03.122Z,11.97
2019-03-11T02:04:31.827Z,12.10
2019-03-11T02:07:00.547Z,12.33
2019-03-11T02:09:29.293Z,12.80
2019-03-11T02:11:58.147Z,12.41
2019-03-11T02:14:26.871Z,11.00
2019-03-11T02:16:55.592Z,10.82
2019-03-11T02:19:24.314Z,11.61
2019-03-11T02:21:53.033Z,11.84
2019-03-11T02:24:21.778Z,11.30
2019-03-11T02:26:50.496Z,11.14
2019-03-11T02:29:19.203Z,11.29
2019-03-11T02:31:47.960Z,11.34
2019-03-11T02:34:16.663Z,11.38
2019-03-11T02:36:45.550Z,11.56
2019-03-11T02:39:14.514Z,11.63
2019-03-11T02:41:43.243Z,11.71
2019-03-11T02:44:11.974Z,11.68
2019-03-11T02:46:40.768Z,11.75
2019-03-11T02:49:09.536Z,11.84
2019-03-11T02:51:38.244Z,11.90
2019-03-11T02:54:06.972Z,12.00
2019-03-11T02:56:35.682Z,11.96
2019-03-11T02:59:04.395Z,12.03
2019-03-11T03:01:46.946Z,12.03
2019-03-11T03:04:26.083Z,12.14
2019-03-11T03:06:54.802Z,12.45
2019-03-11T03:09:23.507Z,12.51
2019-03-11T03:11:52.285Z,12.70
2019-03-11T03:14:20.983Z,12.76
2019-03-11T03:16:49.698Z,12.75
2019-03-11T03:19:18.410Z,12.65
2019-03-11T03:21:47.131Z,12.64
2019-03-11T03:24:15.874Z,12.68
2019-03-11T03:26:44.582Z,12.82
2019-03-11T03:29:13.294Z,12.89
2019-03-11T03:31:44.956Z,13.08
2019-03-11T03:34:13.654Z,12.99
2019-03-11T03:36:45.830Z,12.85
2019-03-11T03:39:14.537Z,12.95
2019-03-11T03:41:43.250Z,12.96
2019-03-11T03:44:11.974Z,12.95
2019-03-11T03:46:40.685Z,13.01
2019-03-11T03:49:09.434Z,13.12
2019-03-11T03:51:38.157Z,13.17
2019-03-11T03:54:06.859Z,13.12
2019-03-11T03:56:35.574Z,13.21
2019-03-11T03:59:04.276Z,13.15
2019-03-11T04:01:33.025Z,13.23
2019-03-11T04:04:01.826Z,13.19
2019-03-11T04:06:30.538Z,13.31
2019-03-11T04:08:59.262Z,13.30
2019-03-11T04:11:27.956Z,13.16
2019-03-11T04:13:56.706Z,13.16
2019-03-11T04:16:25.416Z,13.23
2019-03-11T04:18:55.646Z,13.40
2019-03-11T04:21:24.409Z,13.33
2019-03-11T04:23:53.125Z,13.35
2019-03-11T04:26:23.273Z,13.32
2019-03-11T04:28:51.985Z,13.37
2019-03-11T04:31:20.802Z,13.43
2019-03-11T04:33:49.569Z,13.60
2019-03-11T04:36:18.359Z,13.63
2019-03-11T04:38:47.082Z,13.69
2019-03-11T04:41:15.779Z,13.89
2019-03-11T04:43:44.480Z,13.77
2019-03-11T04:46:13.227Z,13.75
2019-03-11T04:48:48.655Z,13.61
2019-03-11T04:51:17.366Z,13.59
2019-03-11T04:53:46.083Z,13.60
2019-03-11T04:56:14.787Z,13.74
2019-03-11T04:58:43.537Z,13.69
2019-03-11T05:01:12.241Z,13.96
2019-03-11T05:03:40.952Z,13.62
2019-03-11T05:06:09.701Z,13.56
2019-03-11T05:08:38.405Z,13.59
2019-03-11T05:11:07.164Z,13.49
2019-03-11T05:13:35.875Z,13.29
2019-03-11T05:16:04.596Z,13.32
2019-03-11T05:18:33.323Z,13.27
2019-03-11T05:21:02.063Z,13.10
2019-03-11T05:23:30.799Z,13.08
2019-03-11T05:25:59.522Z,13.16
2019-03-11T05:28:28.250Z,13.11
2019-03-11T05:30:56.946Z,13.22
2019-03-11T05:33:25.656Z,13.10
2019-03-11T05:35:54.407Z,13.20
2019-03-11T05:38:23.114Z,13.20
2019-03-11T05:40:51.900Z,13.32
2019-03-11T05:43:20.612Z,13.29
2019-03-11T05:45:49.324Z,13.28
2019-03-11T05:48:18.075Z,13.13
2019-03-11T05:50:46.779Z,13.09
2019-03-11T05:53:15.484Z,13.13
2019-03-11T05:55:44.209Z,13.04
2019-03-11T05:58:12.913Z,12.98
2019-03-11T06:00:41.829Z,13.13
2019-03-11T06:03:10.531Z,12.91
2019-03-11T06:05:39.246Z,12.92
2019-03-11T06:08:07.971Z,13.04
2019-03-11T06:10:36.683Z,13.15
2019-03-11T06:13:05.438Z,13.42
2019-03-11T06:15:34.155Z,13.60
2019-03-11T06:18:02.898Z,13.83
2019-03-11T06:20:45.096Z,13.90
2019-03-11T06:23:14.912Z,14.01
2019-03-11T06:25:43.637Z,14.42
2019-03-11T06:28:12.339Z,14.40
2019-03-11T06:30:43.099Z,14.60
2019-03-11T06:33:11.819Z,14.75
2019-03-11T06:35:40.746Z,14.90
2019-03-11T06:38:09.510Z,14.89
2019-03-11T06:40:38.218Z,14.79
2019-03-11T06:43:06.981Z,14.92
2019-03-11T06:45:35.688Z,14.98
2019-03-11T06:48:04.389Z,15.16
2019-03-11T06:50:33.102Z,15.40
2019-03-11T06:53:01.813Z,15.77
2019-03-11T06:55:30.561Z,15.66
2019-03-11T06:57:59.270Z,15.62
2019-03-11T07:00:27.982Z,15.70
2019-03-11T07:02:56.698Z,15.77
2019-03-11T07:05:25.407Z,15.78
2019-03-11T07:07:54.229Z,15.89
2019-03-11T07:10:22.960Z,15.98
2019-03-11T07:12:51.671Z,16.11
2019-03-11T07:15:20.385Z,16.36
2019-03-11T07:17:49.093Z,16.48
2019-03-11T07:20:18.952Z,16.46
2019-03-11T07:22:47.688Z,16.62
2019-03-11T07:25:16.473Z,16.67
2019-03-11T07:27:45.188Z,16.91
2019-03-11T07:30:20.490Z,16.49
2019-03-11T07:32:49.256Z,16.51
2019-03-11T07:35:17.949Z,16.35
2019-03-11T07:37:46.751Z,16.39
2019-03-11T07:40:28.323Z,16.75
2019-03-11T07:42:47.039Z,16.69
2019-03-11T07:45:16.699Z,16.89
2019-03-11T07:47:45.506Z,16.90
2019-03-11T07:50:16.225Z,16.75
2019-03-11T07:52:44.946Z,17.03
2019-03-11T07:55:14.154Z,17.12
2019-03-11T07:57:42.927Z,17.13
2019-03-11T08:00:16.642Z,17.12
2019-03-11T08:02:45.329Z,17.13
2019-03-11T08:05:14.063Z,17.13
2019-03-11T08:07:42.771Z,17.03
2019-03-11T08:10:14.453Z,17.09
2019-03-11T08:12:43.164Z,17.00
2019-03-11T08:15:16.058Z,16.97
2019-03-11T08:17:44.877Z,16.97
2019-03-11T08:20:14.888Z,17.03
2019-03-11T08:22:43.657Z,17.02
2019-03-11T08:25:14.334Z,17.24
2019-03-11T08:27:43.040Z,17.39
2019-03-11T08:30:20.803Z,17.52
2019-03-11T08:32:49.625Z,17.65
2019-03-11T08:35:18.407Z,17.66
2019-03-11T08:37:47.113Z,17.55
2019-03-11T08:40:22.086Z,17.59
2019-03-11T08:42:50.798Z,17.60
2019-03-11T08:45:20.010Z,17.68
2019-03-11T08:47:48.721Z,17.75
2019-03-11T08:50:17.901Z,17.79
2019-03-11T08:52:46.664Z,17.56
2019-03-11T08:55:15.468Z,17.50
2019-03-11T08:57:44.274Z,17.84
2019-03-11T09:00:21.239Z,17.89
2019-03-11T09:05:15.323Z,18.12
2019-03-11T09:07:44.046Z,17.98
2019-03-11T09:10:17.486Z,18.10
2019-03-11T09:12:46.223Z,18.18
2019-03-11T09:15:21.246Z,18.43
2019-03-11T09:17:50.026Z,18.56
2019-03-11T09:20:19.250Z,18.69
2019-03-11T09:22:47.993Z,18.62
2019-03-11T09:25:19.605Z,18.75
2019-03-11T09:27:50.639Z,18.98
2019-03-11T09:30:20.733Z,18.76
2019-03-11T09:32:49.442Z,19.17
2019-03-11T09:35:18.573Z,19.36
2019-03-11T09:37:47.302Z,19.59
2019-03-11T09:40:17.829Z,19.82
2019-03-11T09:42:46.576Z,20.01
2019-03-11T09:45:16.394Z,20.34
2019-03-11T09:47:45.507Z,20.44
2019-03-11T09:50:18.326Z,20.84
2019-03-11T09:52:47.015Z,21.11
2019-03-11T09:55:20.011Z,21.43
2019-03-11T09:57:49.045Z,21.45
2019-03-11T10:00:22.671Z,21.47
2019-03-11T10:02:53.116Z,21.43
2019-03-11T10:05:21.814Z,21.41
2019-03-11T10:07:50.678Z,21.39
2019-03-11T10:10:21.053Z,21.68
2019-03-11T10:12:49.763Z,21.84
2019-03-11T10:15:19.770Z,21.55
2019-03-11T10:17:48.492Z,21.68
2019-03-11T10:20:20.804Z,21.66
2019-03-11T10:22:49.618Z,21.61
2019-03-11T10:25:19.255Z,21.69
2019-03-11T10:27:47.979Z,21.82
2019-03-11T10:30:27.047Z,22.07
2019-03-11T10:32:55.909Z,21.91
2019-03-11T10:35:32.044Z,21.84
2019-03-11T10:37:55.071Z,21.71
2019-03-11T10:40:24.793Z,22.00
2019-03-11T10:42:53.512Z,21.81
2019-03-11T10:45:31.051Z,21.52
2019-03-11T10:47:52.979Z,21.12
2019-03-11T10:50:22.277Z,21.48
2019-03-11T10:52:51.109Z,21.92
2019-03-11T10:55:21.519Z,22.29
2019-03-11T10:57:50.387Z,21.83
2019-03-11T11:00:22.221Z,21.64
2019-03-11T11:02:50.945Z,21.34
2019-03-11T11:05:19.655Z,21.14
2019-03-11T11:07:48.380Z,21.03
2019-03-11T11:10:17.823Z,21.24
2019-03-11T11:12:46.533Z,21.17
2019-03-11T11:15:23.538Z,20.79
2019-03-11T11:17:52.883Z,20.52
2019-03-11T11:20:22.645Z,20.48
2019-03-11T11:22:52.586Z,20.57
2019-03-11T11:25:22.786Z,20.51
2019-03-11T11:27:51.538Z,20.24
2019-03-11T11:30:25.848Z,20.44
2019-03-11T11:32:54.853Z,20.52
2019-03-11T11:35:23.563Z,20.54
2019-03-11T11:37:52.370Z,20.75
2019-03-11T11:40:23.600Z,20.54
2019-03-11T11:42:52.602Z,20.65
2019-03-11T11:45:22.810Z,20.46
2019-03-11T11:47:51.717Z,20.23
2019-03-11T11:50:23.338Z,20.36
2019-03-11T11:52:52.307Z,20.68
2019-03-11T11:55:22.720Z,20.84
2019-03-11T11:57:51.532Z,21.02
2019-03-11T12:00:23.689Z,20.91
2019-03-11T12:02:52.394Z,21.05
2019-03-11T12:05:21.154Z,21.28
2019-03-11T12:07:49.865Z,21.30
2019-03-11T12:10:21.005Z,21.51
2019-03-11T12:12:49.728Z,21.95
2019-03-11T12:15:18.436Z,22.16
2019-03-11T12:17:47.186Z,22.31
2019-03-11T12:20:28.657Z,22.45
2019-03-11T12:22:57.408Z,22.35
2019-03-11T12:25:26.214Z,22.48
2019-03-11T12:27:55.049Z,22.74
2019-03-11T12:30:29.513Z,22.33
2019-03-11T12:32:58.416Z,22.31
2019-03-11T12:35:27.367Z,22.22
2019-03-11T12:37:56.504Z,22.61
2019-03-11T12:40:25.317Z,22.64
2019-03-11T12:42:54.422Z,23.08
2019-03-11T12:45:24.234Z,23.21
2019-03-11T12:47:52.981Z,23.40
2019-03-11T12:50:23.662Z,23.80
2019-03-11T12:52:52.378Z,23.93
2019-03-11T12:55:21.813Z,23.90
2019-03-11T12:57:50.698Z,23.73
2019-03-11T13:00:20.760Z,23.64
2019-03-11T13:02:49.469Z,23.84
2019-03-11T13:05:18.575Z,23.60
2019-03-11T13:07:47.396Z,22.36
2019-03-11T13:10:29.328Z,21.38
2019-03-11T13:12:58.082Z,21.72
2019-03-11T13:15:26.789Z,21.65
2019-03-11T13:17:55.492Z,22.10
2019-03-11T13:20:30.159Z,21.45
2019-03-11T13:22:58.862Z,20.79
2019-03-11T13:25:27.629Z,21.31
2019-03-11T13:27:56.338Z,21.51
2019-03-11T13:30:25.046Z,21.14
2019-03-11T13:32:53.758Z,21.34
2019-03-11T13:35:22.462Z,21.33
2019-03-11T13:37:51.210Z,21.30
2019-03-11T13:40:19.925Z,21.07
2019-03-11T13:42:48.643Z,21.22
2019-03-11T13:45:18.660Z,21.06
2019-03-11T13:47:47.370Z,20.87
2019-03-11T13:50:17.658Z,21.01
2019-03-11T13:52:46.408Z,21.02
2019-03-11T13:55:17.172Z,21.29
2019-03-11T13:57:45.890Z,21.25
2019-03-11T14:00:19.112Z,21.03
2019-03-11T14:02:47.969Z,21.06
2019-03-11T14:05:16.732Z,21.31
2019-03-11T14:07:45.437Z,21.28
2019-03-11T14:10:15.154Z,21.24
2019-03-11T14:12:43.944Z,21.23
2019-03-11T14:15:17.542Z,21.27
2019-03-11T14:17:46.363Z,21.22
2019-03-11T14:20:15.478Z,21.17
2019-03-11T14:22:44.189Z,21.09
2019-03-11T14:25:13.900Z,20.98
2019-03-11T14:27:42.672Z,20.96
2019-03-11T14:30:22.205Z,20.95
2019-03-11T14:32:50.978Z,20.58
2019-03-11T14:35:19.682Z,20.61
2019-03-11T14:37:48.401Z,20.82
2019-03-11T14:40:18.328Z,20.91
2019-03-11T14:45:16.533Z,20.69
2019-03-11T14:47:45.252Z,20.49
2019-03-11T14:50:14.758Z,20.53
2019-03-11T14:52:43.565Z,20.56
2019-03-11T14:55:13.582Z,20.60
2019-03-11T14:57:42.323Z,20.52
2019-03-11T15:00:19.180Z,20.34
2019-03-11T15:02:48.580Z,20.36
2019-03-11T15:05:21.034Z,20.21
2019-03-11T15:07:49.726Z,20.28
2019-03-11T15:10:21.335Z,20.15
2019-03-11T15:12:50.058Z,20.13
2019-03-11T15:15:21.237Z,19.95
2019-03-11T15:17:49.963Z,19.95
2019-03-11T15:20:18.687Z,19.91
2019-03-11T15:22:47.415Z,19.91
2019-03-11T15:25:16.539Z,19.82
2019-03-11T15:27:45.477Z,19.70
2019-03-11T15:30:19.142Z,19.68
2019-03-11T15:32:47.854Z,19.67
2019-03-11T15:35:16.685Z,19.75
2019-03-11T15:37:45.492Z,19.63
2019-03-11T15:40:20.317Z,19.51
2019-03-11T15:42:49.075Z,19.43
2019-03-11T15:45:19.764Z,19.34
2019-03-11T15:47:48.475Z,19.26
2019-03-11T15:50:25.629Z,19.21
2019-03-11T15:52:54.389Z,19.20
2019-03-11T15:55:23.104Z,19.15
2019-03-11T15:57:51.826Z,19.13
2019-03-11T16:00:21.944Z,19.10
2019-03-11T16:02:50.866Z,19.04
2019-03-11T16:05:21.590Z,19.02
2019-03-11T16:07:50.503Z,18.89
2019-03-11T16:10:19.936Z,18.79
2019-03-11T16:12:48.809Z,18.66
2019-03-11T16:15:18.629Z,18.70
2019-03-11T16:17:47.488Z,18.74
2019-03-11T16:20:18.600Z,18.62
2019-03-11T16:22:47.528Z,18.51
2019-03-11T16:25:16.245Z,18.40
2019-03-11T16:27:44.955Z,18.37
2019-03-11T16:30:21.734Z,18.34
2019-03-11T16:33:00.480Z,18.36
2019-03-11T16:35:22.592Z,18.27
2019-03-11T16:37:51.320Z,18.33
2019-03-11T16:40:20.028Z,18.41
2019-03-11T16:42:48.801Z,18.26
2019-03-11T16:45:19.211Z,18.19
2019-03-11T16:47:48.630Z,18.28
2019-03-11T16:50:21.788Z,18.20
2019-03-11T16:52:50.514Z,18.26
2019-03-11T16:55:21.966Z,18.25
2019-03-11T16:57:53.350Z,18.14
2019-03-11T17:00:26.405Z,18.21
2019-03-11T17:02:55.133Z,18.22
2019-03-11T17:05:23.951Z,18.08
2019-03-11T17:07:52.672Z,18.03
2019-03-11T17:10:22.386Z,18.04
2019-03-11T17:12:51.142Z,18.03
2019-03-11T17:15:19.961Z,17.94
2019-03-11T17:17:48.681Z,17.91
2019-03-11T17:20:20.559Z,17.94
2019-03-11T17:22:49.283Z,18.03
2019-03-11T17:25:18.072Z,18.03
2019-03-11T17:27:46.778Z,17.92
2019-03-11T17:30:29.109Z,17.98
2019-03-11T17:32:57.821Z,17.90
2019-03-11T17:35:26.582Z,17.91
2019-03-11T17:37:55.339Z,17.86
2019-03-11T17:40:25.623Z,17.88
2019-03-11T17:42:54.474Z,17.90
2019-03-11T17:45:23.179Z,17.90
2019-03-11T17:47:52.120Z,17.93
2019-03-11T17:50:21.791Z,18.01
2019-03-11T17:52:50.720Z,17.98
2019-03-11T17:55:20.564Z,17.99
2019-03-11T17:57:49.380Z,17.98
2019-03-11T18:00:25.620Z,18.03
2019-03-11T18:02:59.444Z,18.10
2019-03-11T18:05:28.168Z,17.97
2019-03-11T18:07:56.891Z,17.92
2019-03-11T18:10:25.619Z,17.76
2019-03-11T18:12:54.330Z,17.78
2019-03-11T18:15:23.198Z,17.78
2019-03-11T18:17:51.912Z,17.77
2019-03-11T18:20:21.327Z,17.68
2019-03-11T18:22:50.156Z,17.58
2019-03-11T18:25:20.088Z,17.55
2019-03-11T18:27:49.240Z,17.58
2019-03-11T18:30:26.410Z,17.44
2019-03-11T18:32:57.310Z,17.50
2019-03-11T18:35:27.080Z,17.55
2019-03-11T18:38:04.236Z,17.39
2019-03-11T18:40:26.915Z,17.33
2019-03-11T18:42:55.629Z,17.34
2019-03-11T18:45:24.376Z,17.44
2019-03-11T18:47:53.083Z,17.41
2019-03-11T18:50:25.352Z,17.40
2019-03-11T18:52:54.136Z,17.38
2019-03-11T18:55:22.961Z,17.30
2019-03-11T18:57:51.850Z,17.29
2019-03-11T19:00:24.333Z,17.30
2019-03-11T19:02:53.027Z,17.17
2019-03-11T19:05:22.931Z,17.16
2019-03-11T19:07:51.731Z,17.18
2019-03-11T19:10:21.511Z,17.14
2019-03-11T19:12:50.365Z,17.12
2019-03-11T19:15:23.956Z,17.08
2019-03-11T19:17:52.515Z,16.96
2019-03-11T19:20:22.927Z,16.85
2019-03-11T19:22:51.705Z,16.82
2019-03-11T19:25:20.540Z,16.75
2019-03-11T19:27:49.335Z,16.62
2019-03-11T19:30:25.914Z,16.43
2019-03-11T19:32:54.691Z,16.28
2019-03-11T19:35:23.511Z,16.22
2019-03-11T19:37:52.325Z,16.16
2019-03-11T19:40:22.955Z,16.08
2019-03-11T19:42:51.665Z,15.94
2019-03-11T19:45:20.413Z,15.94
2019-03-11T19:47:49.149Z,15.85
2019-03-11T19:50:21.090Z,15.67
2019-03-11T19:52:58.297Z,15.84
2019-03-11T19:55:20.411Z,15.85
2019-03-11T19:57:49.116Z,15.97
2019-03-11T20:00:25.010Z,15.80
2019-03-11T20:02:53.762Z,15.63
2019-03-11T20:05:34.866Z,15.41
2019-03-11T20:08:03.689Z,14.93
2019-03-11T20:10:32.365Z,14.51
2019-03-11T20:13:01.101Z,14.39
2019-03-11T20:15:29.872Z,14.38
2019-03-11T20:17:58.614Z,14.15
2019-03-11T20:20:27.464Z,14.09
2019-03-11T20:22:56.201Z,14.06
2019-03-11T20:25:35.728Z,14.00
2019-03-11T20:28:04.733Z,13.99
2019-03-11T20:30:33.510Z,13.89
2019-03-11T20:33:03.978Z,13.79
2019-03-11T20:35:32.671Z,13.84
2019-03-11T20:38:01.462Z,13.86
2019-03-11T20:40:30.204Z,13.85
2019-03-11T20:42:59.027Z,13.90
2019-03-11T20:45:27.937Z,13.88
2019-03-11T20:47:56.736Z,13.88
2019-03-11T20:50:25.526Z,13.85
2019-03-11T20:52:54.246Z,13.85
2019-03-11T20:55:22.979Z,13.91
2019-03-11T20:57:51.721Z,13.76
2019-03-11T21:00:21.942Z,13.73
2019-03-11T21:02:50.883Z,13.72
2019-03-11T21:05:28.802Z,13.64
2019-03-11T21:07:57.483Z,13.65
2019-03-11T21:10:26.212Z,13.60
2019-03-11T21:12:54.907Z,13.60
2019-03-11T21:15:23.699Z,13.46
2019-03-11T21:17:52.424Z,13.49
2019-03-11T21:20:21.195Z,13.45
2019-03-11T21:22:49.973Z,13.42
2019-03-11T21:25:20.267Z,13.32
2019-03-11T21:27:49.019Z,13.42
2019-03-11T21:30:25.544Z,13.43
2019-03-11T21:32:54.437Z,13.43
2019-03-11T21:35:23.164Z,13.39
2019-03-11T21:37:52.136Z,13.32
2019-03-11T21:40:22.769Z,13.37
2019-03-11T21:42:51.608Z,13.36
2019-03-11T21:45:33.021Z,13.30
2019-03-11T21:47:51.376Z,13.27
2019-03-11T21:50:25.602Z,13.27
2019-03-11T21:52:54.318Z,13.18
2019-03-11T21:55:23.210Z,12.99
2019-03-11T21:57:52.042Z,13.02
2019-03-11T22:00:33.852Z,13.01
2019-03-11T22:02:54.899Z,12.92
2019-03-11T22:05:23.826Z,12.91
2019-03-11T22:07:52.539Z,12.88
2019-03-11T22:10:21.805Z,12.91
2019-03-11T22:12:50.617Z,12.86
2019-03-11T22:15:23.268Z,12.77
2019-03-11T22:17:52.029Z,12.68
2019-03-11T22:20:20.741Z,12.65
2019-03-11T22:22:49.454Z,12.69
2019-03-11T22:25:20.198Z,12.55
2019-03-11T22:27:49.120Z,12.46
2019-03-11T22:30:22.323Z,12.39
2019-03-11T22:32:51.184Z,12.28
2019-03-11T22:35:19.995Z,12.23
2019-03-11T22:37:48.702Z,12.26
2019-03-11T22:40:20.937Z,12.31
2019-03-11T22:42:49.657Z,12.26
2019-03-11T22:45:22.081Z,12.23
2019-03-11T22:47:51.270Z,12.24
2019-03-11T22:50:20.183Z,12.25
2019-03-11T22:52:48.895Z,12.29
2019-03-11T22:55:19.449Z,12.30
2019-03-11T22:57:48.161Z,12.30
2019-03-11T23:00:26.887Z,12.23
2019-03-11T23:02:55.608Z,12.14
2019-03-11T23:05:24.322Z,12.14
2019-03-11T23:07:53.070Z,12.10
2019-03-11T23:10:21.789Z,12.21
2019-03-11T23:12:50.498Z,12.24
2019-03-11T23:15:19.216Z,12.08
2019-03-11T23:17:47.934Z,12.05
2019-03-11T23:20:16.684Z,12.02
2019-03-11T23:22:45.399Z,12.08
2019-03-11T23:25:14.113Z,12.08
2019-03-11T23:27:42.836Z,12.17
2019-03-11T23:30:14.147Z,12.19
2019-03-11T23:32:43.491Z,12.20
2019-03-11T23:35:12.194Z,12.15
2019-03-11T23:37:40.908Z,12.04
2019-03-11T23:40:10.227Z,12.04
2019-03-11T23:42:39.672Z,11.96
2019-03-11T23:45:10.548Z,11.93
2019-03-11T23:47:39.263Z,11.86
2019-03-11T23:50:12.977Z,11.81
2019-03-11T23:52:43.426Z,11.72
2019-03-11T23:55:12.739Z,11.76
2019-03-11T23:57:41.446Z,11.55
